sensor_id;sensor_type;location;lat;lon;timestamp;P1;durP1;ratioP1;P2;durP2;ratioP2
42036;SDS011;30340;52.004;5.908;2023-06-04T00:02:18;1.70;;;1.20;;
42036;SDS011;30340;52.004;5.908;2023-06-04T00:04:44;1.30;;;1.10;;
42036;SDS011;30340;52.004;5.908;2023-06-04T00:07:10;1.30;;;1.10;;
42036;SDS011;30340;52.004;5.908;2023-06-04T00:09:35;2.80;;;1.40;;
42036;SDS011;30340;52.004;5.908;2023-06-04T00:12:01;2.78;;;1.30;;
42036;SDS011;30340;52.004;5.908;2023-06-04T00:14:27;1.52;;;1.02;;
42036;SDS011;30340;52.004;5.908;2023-06-04T00:16:52;2.25;;;1.20;;
42036;SDS011;30340;52.004;5.908;2023-06-04T00:19:18;1.75;;;1.20;;
42036;SDS011;30340;52.004;5.908;2023-06-04T00:21:44;3.55;;;1.17;;
42036;SDS011;30340;52.004;5.908;2023-06-04T00:24:10;2.35;;;1.40;;
42036;SDS011;30340;52.004;5.908;2023-06-04T00:26:37;1.23;;;1.02;;
42036;SDS011;30340;52.004;5.908;2023-06-04T00:29:03;2.95;;;1.27;;
42036;SDS011;30340;52.004;5.908;2023-06-04T00:31:28;1.42;;;1.20;;
42036;SDS011;30340;52.004;5.908;2023-06-04T00:33:54;2.22;;;1.20;;
42036;SDS011;30340;52.004;5.908;2023-06-04T00:36:19;2.58;;;1.08;;
42036;SDS011;30340;52.004;5.908;2023-06-04T00:38:45;2.00;;;1.20;;
42036;SDS011;30340;52.004;5.908;2023-06-04T00:41:11;1.75;;;1.10;;
42036;SDS011;30340;52.004;5.908;2023-06-04T00:43:37;1.95;;;1.23;;
42036;SDS011;30340;52.004;5.908;2023-06-04T00:46:02;1.42;;;1.00;;
42036;SDS011;30340;52.004;5.908;2023-06-04T00:48:28;4.00;;;1.23;;
42036;SDS011;30340;52.004;5.908;2023-06-04T00:50:55;2.65;;;1.23;;
42036;SDS011;30340;52.004;5.908;2023-06-04T00:53:22;1.27;;;1.00;;
42036;SDS011;30340;52.004;5.908;2023-06-04T00:55:49;2.85;;;1.40;;
42036;SDS011;30340;52.004;5.908;2023-06-04T00:58:15;3.20;;;1.30;;
42036;SDS011;30340;52.004;5.908;2023-06-04T01:00:41;2.72;;;1.52;;
42036;SDS011;30340;52.004;5.908;2023-06-04T01:03:10;1.63;;;1.13;;
42036;SDS011;30340;52.004;5.908;2023-06-04T01:08:13;1.33;;;1.10;;
42036;SDS011;30340;52.004;5.908;2023-06-04T01:11:01;4.05;;;1.35;;
42036;SDS011;30340;52.004;5.908;2023-06-04T01:13:26;2.55;;;1.30;;
42036;SDS011;30340;52.004;5.908;2023-06-04T01:15:52;2.45;;;1.42;;
42036;SDS011;30340;52.004;5.908;2023-06-04T01:18:19;2.05;;;1.27;;
42036;SDS011;30340;52.004;5.908;2023-06-04T01:20:56;3.95;;;1.40;;
42036;SDS011;30340;52.004;5.908;2023-06-04T01:23:25;1.83;;;1.30;;
42036;SDS011;30340;52.004;5.908;2023-06-04T01:25:53;5.45;;;1.55;;
42036;SDS011;30340;52.004;5.908;2023-06-04T01:28:19;2.67;;;1.30;;
42036;SDS011;30340;52.004;5.908;2023-06-04T01:30:46;3.33;;;1.55;;
42036;SDS011;30340;52.004;5.908;2023-06-04T01:33:16;2.70;;;1.10;;
42036;SDS011;30340;52.004;5.908;2023-06-04T01:35:43;2.95;;;1.40;;
42036;SDS011;30340;52.004;5.908;2023-06-04T01:38:09;1.70;;;1.20;;
42036;SDS011;30340;52.004;5.908;2023-06-04T01:40:35;1.50;;;1.20;;
42036;SDS011;30340;52.004;5.908;2023-06-04T01:43:01;1.73;;;1.30;;
42036;SDS011;30340;52.004;5.908;2023-06-04T01:45:27;2.15;;;1.20;;
42036;SDS011;30340;52.004;5.908;2023-06-04T01:47:53;1.60;;;1.30;;
42036;SDS011;30340;52.004;5.908;2023-06-04T01:50:19;4.00;;;1.13;;
42036;SDS011;30340;52.004;5.908;2023-06-04T01:52:45;3.20;;;1.38;;
42036;SDS011;30340;52.004;5.908;2023-06-04T01:55:12;3.05;;;1.30;;
42036;SDS011;30340;52.004;5.908;2023-06-04T01:57:39;1.55;;;1.20;;
42036;SDS011;30340;52.004;5.908;2023-06-04T02:00:06;1.60;;;1.10;;
42036;SDS011;30340;52.004;5.908;2023-06-04T02:02:34;1.80;;;1.33;;
42036;SDS011;30340;52.004;5.908;2023-06-04T02:05:01;2.47;;;1.30;;
42036;SDS011;30340;52.004;5.908;2023-06-04T02:07:26;1.80;;;1.30;;
42036;SDS011;30340;52.004;5.908;2023-06-04T02:09:52;1.90;;;1.33;;
42036;SDS011;30340;52.004;5.908;2023-06-04T02:12:18;3.83;;;1.67;;
42036;SDS011;30340;52.004;5.908;2023-06-04T02:14:44;4.60;;;1.55;;
42036;SDS011;30340;52.004;5.908;2023-06-04T02:17:12;1.85;;;1.33;;
42036;SDS011;30340;52.004;5.908;2023-06-04T02:19:39;1.70;;;1.40;;
42036;SDS011;30340;52.004;5.908;2023-06-04T02:22:09;1.73;;;1.48;;
42036;SDS011;30340;52.004;5.908;2023-06-04T02:24:36;1.73;;;1.40;;
42036;SDS011;30340;52.004;5.908;2023-06-04T02:27:03;1.90;;;1.52;;
42036;SDS011;30340;52.004;5.908;2023-06-04T02:29:30;2.60;;;1.40;;
42036;SDS011;30340;52.004;5.908;2023-06-04T02:31:56;2.65;;;1.58;;
42036;SDS011;30340;52.004;5.908;2023-06-04T02:34:21;1.40;;;1.30;;
42036;SDS011;30340;52.004;5.908;2023-06-04T02:36:48;2.42;;;1.40;;
42036;SDS011;30340;52.004;5.908;2023-06-04T02:39:15;2.70;;;1.50;;
42036;SDS011;30340;52.004;5.908;2023-06-04T02:41:41;2.78;;;1.40;;
42036;SDS011;30340;52.004;5.908;2023-06-04T02:44:07;2.72;;;1.58;;
42036;SDS011;30340;52.004;5.908;2023-06-04T02:46:33;1.95;;;1.33;;
42036;SDS011;30340;52.004;5.908;2023-06-04T02:48:58;1.33;;;1.23;;
42036;SDS011;30340;52.004;5.908;2023-06-04T02:51:24;2.28;;;1.40;;
42036;SDS011;30340;52.004;5.908;2023-06-04T02:53:50;2.50;;;1.48;;
42036;SDS011;30340;52.004;5.908;2023-06-04T02:56:15;2.25;;;1.30;;
42036;SDS011;30340;52.004;5.908;2023-06-04T02:58:50;3.03;;;1.60;;
42036;SDS011;30340;52.004;5.908;2023-06-04T03:01:18;1.83;;;1.48;;
42036;SDS011;30340;52.004;5.908;2023-06-04T03:03:47;2.22;;;1.60;;
42036;SDS011;30340;52.004;5.908;2023-06-04T03:06:13;2.85;;;1.27;;
42036;SDS011;30340;52.004;5.908;2023-06-04T03:08:40;1.83;;;1.50;;
42036;SDS011;30340;52.004;5.908;2023-06-04T03:11:06;2.38;;;1.60;;
42036;SDS011;30340;52.004;5.908;2023-06-04T03:13:32;3.13;;;1.75;;
42036;SDS011;30340;52.004;5.908;2023-06-04T03:15:58;1.67;;;1.40;;
42036;SDS011;30340;52.004;5.908;2023-06-04T03:18:26;5.55;;;1.63;;
42036;SDS011;30340;52.004;5.908;2023-06-04T03:20:52;2.75;;;1.35;;
42036;SDS011;30340;52.004;5.908;2023-06-04T03:23:18;1.83;;;1.40;;
42036;SDS011;30340;52.004;5.908;2023-06-04T03:25:44;2.08;;;1.60;;
42036;SDS011;30340;52.004;5.908;2023-06-04T03:28:10;2.28;;;1.70;;
42036;SDS011;30340;52.004;5.908;2023-06-04T03:30:35;2.53;;;1.60;;
42036;SDS011;30340;52.004;5.908;2023-06-04T03:33:01;2.22;;;1.50;;
42036;SDS011;30340;52.004;5.908;2023-06-04T03:35:27;2.60;;;1.55;;
42036;SDS011;30340;52.004;5.908;2023-06-04T03:37:53;4.03;;;1.75;;
42036;SDS011;30340;52.004;5.908;2023-06-04T03:40:19;2.90;;;1.75;;
42036;SDS011;30340;52.004;5.908;2023-06-04T03:42:44;3.72;;;1.65;;
42036;SDS011;30340;52.004;5.908;2023-06-04T03:45:10;3.05;;;1.80;;
42036;SDS011;30340;52.004;5.908;2023-06-04T03:47:37;2.03;;;1.55;;
42036;SDS011;30340;52.004;5.908;2023-06-04T03:50:03;2.75;;;1.60;;
42036;SDS011;30340;52.004;5.908;2023-06-04T03:52:29;2.50;;;1.90;;
42036;SDS011;30340;52.004;5.908;2023-06-04T03:54:56;3.10;;;1.80;;
42036;SDS011;30340;52.004;5.908;2023-06-04T03:57:21;3.25;;;1.60;;
42036;SDS011;30340;52.004;5.908;2023-06-04T03:59:47;2.63;;;1.50;;
42036;SDS011;30340;52.004;5.908;2023-06-04T04:02:13;1.90;;;1.70;;
42036;SDS011;30340;52.004;5.908;2023-06-04T04:04:38;2.60;;;1.55;;
42036;SDS011;30340;52.004;5.908;2023-06-04T04:07:04;3.90;;;1.70;;
42036;SDS011;30340;52.004;5.908;2023-06-04T04:09:30;2.83;;;1.90;;
42036;SDS011;30340;52.004;5.908;2023-06-04T04:11:55;3.65;;;1.70;;
42036;SDS011;30340;52.004;5.908;2023-06-04T04:14:21;3.38;;;1.83;;
42036;SDS011;30340;52.004;5.908;2023-06-04T04:16:46;2.53;;;1.70;;
42036;SDS011;30340;52.004;5.908;2023-06-04T04:19:12;3.33;;;2.08;;
42036;SDS011;30340;52.004;5.908;2023-06-04T04:21:38;4.97;;;1.85;;
42036;SDS011;30340;52.004;5.908;2023-06-04T04:24:04;4.10;;;1.63;;
42036;SDS011;30340;52.004;5.908;2023-06-04T04:26:30;2.78;;;1.90;;
42036;SDS011;30340;52.004;5.908;2023-06-04T04:28:55;4.30;;;2.30;;
42036;SDS011;30340;52.004;5.908;2023-06-04T04:31:23;2.72;;;1.75;;
42036;SDS011;30340;52.004;5.908;2023-06-04T04:33:49;3.72;;;2.20;;
42036;SDS011;30340;52.004;5.908;2023-06-04T04:36:16;3.80;;;1.85;;
42036;SDS011;30340;52.004;5.908;2023-06-04T04:38:43;2.83;;;1.90;;
42036;SDS011;30340;52.004;5.908;2023-06-04T04:41:10;2.40;;;1.80;;
42036;SDS011;30340;52.004;5.908;2023-06-04T04:43:36;5.88;;;2.30;;
42036;SDS011;30340;52.004;5.908;2023-06-04T04:46:04;4.43;;;2.20;;
42036;SDS011;30340;52.004;5.908;2023-06-04T04:48:30;3.25;;;2.10;;
42036;SDS011;30340;52.004;5.908;2023-06-04T04:50:56;4.07;;;2.10;;
42036;SDS011;30340;52.004;5.908;2023-06-04T04:53:22;4.47;;;2.22;;
42036;SDS011;30340;52.004;5.908;2023-06-04T04:55:48;5.40;;;2.20;;
42036;SDS011;30340;52.004;5.908;2023-06-04T04:58:14;3.53;;;2.08;;
42036;SDS011;30340;52.004;5.908;2023-06-04T05:00:40;3.17;;;1.77;;
42036;SDS011;30340;52.004;5.908;2023-06-04T05:03:06;3.90;;;1.98;;
42036;SDS011;30340;52.004;5.908;2023-06-04T05:05:32;3.03;;;1.90;;
42036;SDS011;30340;52.004;5.908;2023-06-04T05:07:58;3.08;;;2.10;;
42036;SDS011;30340;52.004;5.908;2023-06-04T05:10:23;2.30;;;1.67;;
42036;SDS011;30340;52.004;5.908;2023-06-04T05:12:56;5.25;;;2.03;;
42036;SDS011;30340;52.004;5.908;2023-06-04T05:15:23;3.92;;;2.10;;
42036;SDS011;30340;52.004;5.908;2023-06-04T05:17:51;3.92;;;1.92;;
42036;SDS011;30340;52.004;5.908;2023-06-04T05:20:17;4.18;;;2.03;;
42036;SDS011;30340;52.004;5.908;2023-06-04T05:22:43;5.72;;;2.28;;
42036;SDS011;30340;52.004;5.908;2023-06-04T05:25:10;5.45;;;2.50;;
42036;SDS011;30340;52.004;5.908;2023-06-04T05:27:36;3.33;;;1.80;;
42036;SDS011;30340;52.004;5.908;2023-06-04T05:30:02;3.22;;;2.03;;
42036;SDS011;30340;52.004;5.908;2023-06-04T05:32:29;5.45;;;1.90;;
42036;SDS011;30340;52.004;5.908;2023-06-04T05:34:56;2.55;;;1.83;;
42036;SDS011;30340;52.004;5.908;2023-06-04T05:37:22;3.03;;;1.80;;
42036;SDS011;30340;52.004;5.908;2023-06-04T05:39:52;2.72;;;1.80;;
42036;SDS011;30340;52.004;5.908;2023-06-04T05:42:18;3.70;;;1.92;;
42036;SDS011;30340;52.004;5.908;2023-06-04T05:44:44;3.35;;;1.90;;
42036;SDS011;30340;52.004;5.908;2023-06-04T05:47:10;3.70;;;2.03;;
42036;SDS011;30340;52.004;5.908;2023-06-04T05:49:36;3.33;;;1.90;;
42036;SDS011;30340;52.004;5.908;2023-06-04T05:52:01;2.60;;;1.63;;
42036;SDS011;30340;52.004;5.908;2023-06-04T05:54:28;3.50;;;1.95;;
42036;SDS011;30340;52.004;5.908;2023-06-04T05:56:54;5.07;;;2.28;;
42036;SDS011;30340;52.004;5.908;2023-06-04T05:59:20;3.67;;;2.10;;
42036;SDS011;30340;52.004;5.908;2023-06-04T06:01:46;4.40;;;2.10;;
42036;SDS011;30340;52.004;5.908;2023-06-04T06:04:13;3.65;;;1.90;;
42036;SDS011;30340;52.004;5.908;2023-06-04T06:06:40;3.67;;;1.98;;
42036;SDS011;30340;52.004;5.908;2023-06-04T06:09:08;2.22;;;1.60;;
42036;SDS011;30340;52.004;5.908;2023-06-04T06:11:35;6.00;;;2.20;;
42036;SDS011;30340;52.004;5.908;2023-06-04T06:14:00;5.88;;;1.85;;
42036;SDS011;30340;52.004;5.908;2023-06-04T06:16:26;3.22;;;2.10;;
42036;SDS011;30340;52.004;5.908;2023-06-04T06:18:52;3.05;;;1.67;;
42036;SDS011;30340;52.004;5.908;2023-06-04T06:21:18;3.75;;;1.90;;
42036;SDS011;30340;52.004;5.908;2023-06-04T06:23:44;3.30;;;1.90;;
42036;SDS011;30340;52.004;5.908;2023-06-04T06:26:10;2.72;;;1.77;;
42036;SDS011;30340;52.004;5.908;2023-06-04T06:28:36;4.00;;;1.80;;
42036;SDS011;30340;52.004;5.908;2023-06-04T06:31:02;4.90;;;2.13;;
42036;SDS011;30340;52.004;5.908;2023-06-04T06:33:28;2.90;;;1.88;;
42036;SDS011;30340;52.004;5.908;2023-06-04T06:35:53;3.28;;;1.95;;
42036;SDS011;30340;52.004;5.908;2023-06-04T06:38:19;2.40;;;1.63;;
42036;SDS011;30340;52.004;5.908;2023-06-04T06:40:44;3.47;;;1.70;;
42036;SDS011;30340;52.004;5.908;2023-06-04T06:43:10;3.15;;;1.63;;
42036;SDS011;30340;52.004;5.908;2023-06-04T06:45:36;4.43;;;2.20;;
42036;SDS011;30340;52.004;5.908;2023-06-04T06:48:02;3.65;;;1.60;;
42036;SDS011;30340;52.004;5.908;2023-06-04T06:50:28;4.15;;;1.83;;
42036;SDS011;30340;52.004;5.908;2023-06-04T06:52:54;2.40;;;1.48;;
42036;SDS011;30340;52.004;5.908;2023-06-04T06:55:20;2.35;;;1.48;;
42036;SDS011;30340;52.004;5.908;2023-06-04T06:57:46;3.20;;;1.50;;
42036;SDS011;30340;52.004;5.908;2023-06-04T07:00:11;3.22;;;1.60;;
42036;SDS011;30340;52.004;5.908;2023-06-04T07:02:37;3.40;;;1.73;;
42036;SDS011;30340;52.004;5.908;2023-06-04T07:05:03;2.85;;;1.60;;
42036;SDS011;30340;52.004;5.908;2023-06-04T07:07:29;3.67;;;1.63;;
42036;SDS011;30340;52.004;5.908;2023-06-04T07:09:54;2.45;;;1.60;;
42036;SDS011;30340;52.004;5.908;2023-06-04T07:12:20;3.22;;;1.83;;
42036;SDS011;30340;52.004;5.908;2023-06-04T07:14:46;3.28;;;1.67;;
42036;SDS011;30340;52.004;5.908;2023-06-04T07:17:11;3.22;;;1.70;;
42036;SDS011;30340;52.004;5.908;2023-06-04T07:19:37;4.60;;;1.65;;
42036;SDS011;30340;52.004;5.908;2023-06-04T07:22:03;2.97;;;1.80;;
42036;SDS011;30340;52.004;5.908;2023-06-04T07:24:28;2.92;;;1.58;;
42036;SDS011;30340;52.004;5.908;2023-06-04T07:26:54;2.85;;;1.80;;
42036;SDS011;30340;52.004;5.908;2023-06-04T07:29:19;4.00;;;1.70;;
42036;SDS011;30340;52.004;5.908;2023-06-04T07:31:45;3.50;;;1.60;;
42036;SDS011;30340;52.004;5.908;2023-06-04T07:34:11;3.17;;;1.35;;
42036;SDS011;30340;52.004;5.908;2023-06-04T07:36:36;3.13;;;1.50;;
42036;SDS011;30340;52.004;5.908;2023-06-04T07:39:02;2.25;;;1.42;;
42036;SDS011;30340;52.004;5.908;2023-06-04T07:41:29;2.83;;;1.48;;
42036;SDS011;30340;52.004;5.908;2023-06-04T07:43:55;2.42;;;1.50;;
42036;SDS011;30340;52.004;5.908;2023-06-04T07:46:20;3.63;;;1.85;;
42036;SDS011;30340;52.004;5.908;2023-06-04T07:48:46;3.88;;;1.85;;
42036;SDS011;30340;52.004;5.908;2023-06-04T07:51:12;2.40;;;1.50;;
42036;SDS011;30340;52.004;5.908;2023-06-04T07:53:38;1.70;;;1.23;;
42036;SDS011;30340;52.004;5.908;2023-06-04T07:56:05;3.45;;;1.70;;
42036;SDS011;30340;52.004;5.908;2023-06-04T07:58:31;3.65;;;1.55;;
42036;SDS011;30340;52.004;5.908;2023-06-04T08:00:57;3.58;;;1.60;;
42036;SDS011;30340;52.004;5.908;2023-06-04T08:03:22;2.88;;;1.50;;
42036;SDS011;30340;52.004;5.908;2023-06-04T08:05:49;2.88;;;1.40;;
42036;SDS011;30340;52.004;5.908;2023-06-04T08:08:14;2.05;;;1.13;;
42036;SDS011;30340;52.004;5.908;2023-06-04T08:10:40;2.45;;;1.40;;
42036;SDS011;30340;52.004;5.908;2023-06-04T08:13:06;2.35;;;1.30;;
42036;SDS011;30340;52.004;5.908;2023-06-04T08:15:31;3.88;;;1.30;;
42036;SDS011;30340;52.004;5.908;2023-06-04T08:17:57;1.85;;;1.33;;
42036;SDS011;30340;52.004;5.908;2023-06-04T08:20:23;2.00;;;1.20;;
42036;SDS011;30340;52.004;5.908;2023-06-04T08:22:48;2.10;;;1.20;;
42036;SDS011;30340;52.004;5.908;2023-06-04T08:25:14;2.45;;;1.33;;
42036;SDS011;30340;52.004;5.908;2023-06-04T08:27:40;3.78;;;1.30;;
42036;SDS011;30340;52.004;5.908;2023-06-04T08:30:07;2.40;;;1.40;;
42036;SDS011;30340;52.004;5.908;2023-06-04T08:32:33;2.95;;;1.13;;
42036;SDS011;30340;52.004;5.908;2023-06-04T08:34:59;2.45;;;1.13;;
42036;SDS011;30340;52.004;5.908;2023-06-04T08:37:25;2.85;;;1.40;;
42036;SDS011;30340;52.004;5.908;2023-06-04T08:39:50;1.90;;;1.00;;
42036;SDS011;30340;52.004;5.908;2023-06-04T08:42:40;2.85;;;1.30;;
42036;SDS011;30340;52.004;5.908;2023-06-04T08:45:11;2.35;;;1.20;;
42036;SDS011;30340;52.004;5.908;2023-06-04T08:47:44;2.15;;;1.17;;
42036;SDS011;30340;52.004;5.908;2023-06-04T08:50:14;2.60;;;1.50;;
42036;SDS011;30340;52.004;5.908;2023-06-04T08:52:43;1.70;;;1.10;;
42036;SDS011;30340;52.004;5.908;2023-06-04T08:55:11;2.33;;;1.17;;
42036;SDS011;30340;52.004;5.908;2023-06-04T08:57:39;1.83;;;1.05;;
42036;SDS011;30340;52.004;5.908;2023-06-04T09:00:05;2.28;;;1.30;;
42036;SDS011;30340;52.004;5.908;2023-06-04T09:02:33;2.00;;;1.10;;
42036;SDS011;30340;52.004;5.908;2023-06-04T09:05:02;2.85;;;1.10;;
42036;SDS011;30340;52.004;5.908;2023-06-04T09:07:35;2.15;;;1.10;;
42036;SDS011;30340;52.004;5.908;2023-06-04T09:10:02;1.88;;;1.17;;
42036;SDS011;30340;52.004;5.908;2023-06-04T09:12:29;2.33;;;1.30;;
42036;SDS011;30340;52.004;5.908;2023-06-04T09:14:56;2.08;;;1.30;;
42036;SDS011;30340;52.004;5.908;2023-06-04T09:17:22;1.52;;;1.20;;
42036;SDS011;30340;52.004;5.908;2023-06-04T09:19:49;1.35;;;1.02;;
42036;SDS011;30340;52.004;5.908;2023-06-04T09:22:15;2.08;;;1.00;;
42036;SDS011;30340;52.004;5.908;2023-06-04T09:24:44;2.75;;;1.10;;
42036;SDS011;30340;52.004;5.908;2023-06-04T09:27:13;1.17;;;0.98;;
42036;SDS011;30340;52.004;5.908;2023-06-04T09:29:40;2.42;;;1.10;;
42036;SDS011;30340;52.004;5.908;2023-06-04T09:32:27;1.80;;;1.00;;
42036;SDS011;30340;52.004;5.908;2023-06-04T09:34:55;3.20;;;0.90;;
42036;SDS011;30340;52.004;5.908;2023-06-04T09:37:33;1.65;;;1.00;;
42036;SDS011;30340;52.004;5.908;2023-06-04T09:39:59;2.05;;;0.90;;
42036;SDS011;30340;52.004;5.908;2023-06-04T09:42:25;1.92;;;0.98;;
42036;SDS011;30340;52.004;5.908;2023-06-04T09:44:51;2.63;;;1.08;;
42036;SDS011;30340;52.004;5.908;2023-06-04T09:47:17;0.82;;;0.80;;
42036;SDS011;30340;52.004;5.908;2023-06-04T09:49:43;1.40;;;0.90;;
42036;SDS011;30340;52.004;5.908;2023-06-04T09:52:09;1.80;;;1.00;;
42036;SDS011;30340;52.004;5.908;2023-06-04T09:54:38;1.92;;;1.10;;
42036;SDS011;30340;52.004;5.908;2023-06-04T09:57:16;1.60;;;1.00;;
42036;SDS011;30340;52.004;5.908;2023-06-04T09:59:46;1.88;;;0.90;;
42036;SDS011;30340;52.004;5.908;2023-06-04T10:02:17;2.60;;;1.10;;
42036;SDS011;30340;52.004;5.908;2023-06-04T10:04:47;2.60;;;1.10;;
42036;SDS011;30340;52.004;5.908;2023-06-04T10:07:16;2.53;;;1.00;;
42036;SDS011;30340;52.004;5.908;2023-06-04T10:09:43;2.25;;;0.98;;
42036;SDS011;30340;52.004;5.908;2023-06-04T10:12:11;1.48;;;1.20;;
42036;SDS011;30340;52.004;5.908;2023-06-04T10:14:52;2.55;;;1.15;;
42036;SDS011;30340;52.004;5.908;2023-06-04T10:17:22;1.35;;;0.98;;
42036;SDS011;30340;52.004;5.908;2023-06-04T10:19:50;1.33;;;0.90;;
42036;SDS011;30340;52.004;5.908;2023-06-04T10:22:19;1.85;;;1.05;;
42036;SDS011;30340;52.004;5.908;2023-06-04T10:24:47;1.52;;;0.95;;
42036;SDS011;30340;52.004;5.908;2023-06-04T10:27:14;2.03;;;1.00;;
42036;SDS011;30340;52.004;5.908;2023-06-04T10:29:41;1.58;;;1.10;;
42036;SDS011;30340;52.004;5.908;2023-06-04T10:32:07;2.05;;;1.10;;
42036;SDS011;30340;52.004;5.908;2023-06-04T10:34:33;2.90;;;1.23;;
42036;SDS011;30340;52.004;5.908;2023-06-04T10:37:00;2.50;;;1.27;;
42036;SDS011;30340;52.004;5.908;2023-06-04T10:39:28;1.65;;;1.10;;
42036;SDS011;30340;52.004;5.908;2023-06-04T10:42:01;1.52;;;1.00;;
42036;SDS011;30340;52.004;5.908;2023-06-04T10:44:28;1.75;;;0.90;;
42036;SDS011;30340;52.004;5.908;2023-06-04T10:46:57;1.67;;;1.17;;
42036;SDS011;30340;52.004;5.908;2023-06-04T10:49:27;2.40;;;1.00;;
42036;SDS011;30340;52.004;5.908;2023-06-04T10:51:53;2.60;;;1.00;;
42036;SDS011;30340;52.004;5.908;2023-06-04T10:54:28;1.02;;;0.90;;
42036;SDS011;30340;52.004;5.908;2023-06-04T10:56:53;1.15;;;0.90;;
42036;SDS011;30340;52.004;5.908;2023-06-04T10:59:19;2.35;;;1.00;;
42036;SDS011;30340;52.004;5.908;2023-06-04T11:01:45;2.80;;;1.33;;
42036;SDS011;30340;52.004;5.908;2023-06-04T11:04:21;1.30;;;1.10;;
42036;SDS011;30340;52.004;5.908;2023-06-04T11:06:48;1.85;;;1.10;;
42036;SDS011;30340;52.004;5.908;2023-06-04T11:09:34;2.00;;;0.90;;
42036;SDS011;30340;52.004;5.908;2023-06-04T11:12:01;1.20;;;1.00;;
42036;SDS011;30340;52.004;5.908;2023-06-04T11:14:30;1.73;;;0.90;;
42036;SDS011;30340;52.004;5.908;2023-06-04T11:16:56;1.02;;;0.93;;
42036;SDS011;30340;52.004;5.908;2023-06-04T11:19:22;1.50;;;1.10;;
42036;SDS011;30340;52.004;5.908;2023-06-04T11:21:48;2.20;;;1.10;;
42036;SDS011;30340;52.004;5.908;2023-06-04T11:24:15;2.55;;;1.33;;
42036;SDS011;30340;52.004;5.908;2023-06-04T11:26:41;1.50;;;1.13;;
42036;SDS011;30340;52.004;5.908;2023-06-04T11:29:07;1.23;;;0.90;;
42036;SDS011;30340;52.004;5.908;2023-06-04T11:31:42;1.33;;;1.10;;
42036;SDS011;30340;52.004;5.908;2023-06-04T11:34:09;2.75;;;1.27;;
42036;SDS011;30340;52.004;5.908;2023-06-04T11:36:38;1.10;;;1.00;;
42036;SDS011;30340;52.004;5.908;2023-06-04T11:39:04;1.90;;;1.00;;
42036;SDS011;30340;52.004;5.908;2023-06-04T11:41:32;1.60;;;1.08;;
42036;SDS011;30340;52.004;5.908;2023-06-04T11:44:03;2.08;;;1.23;;
42036;SDS011;30340;52.004;5.908;2023-06-04T11:46:31;2.20;;;1.30;;
42036;SDS011;30340;52.004;5.908;2023-06-04T11:48:58;3.70;;;1.45;;
42036;SDS011;30340;52.004;5.908;2023-06-04T11:51:24;2.92;;;1.20;;
42036;SDS011;30340;52.004;5.908;2023-06-04T11:53:50;2.33;;;1.15;;
42036;SDS011;30340;52.004;5.908;2023-06-04T11:56:16;1.70;;;0.95;;
42036;SDS011;30340;52.004;5.908;2023-06-04T11:58:43;2.22;;;1.02;;
42036;SDS011;30340;52.004;5.908;2023-06-04T12:01:11;2.33;;;1.25;;
42036;SDS011;30340;52.004;5.908;2023-06-04T12:03:41;1.70;;;1.20;;
42036;SDS011;30340;52.004;5.908;2023-06-04T12:08:46;1.80;;;1.23;;
42036;SDS011;30340;52.004;5.908;2023-06-04T12:11:27;3.20;;;1.10;;
42036;SDS011;30340;52.004;5.908;2023-06-04T12:13:56;1.15;;;1.05;;
42036;SDS011;30340;52.004;5.908;2023-06-04T12:16:24;1.77;;;1.08;;
42036;SDS011;30340;52.004;5.908;2023-06-04T12:18:49;1.92;;;1.20;;
42036;SDS011;30340;52.004;5.908;2023-06-04T12:21:23;2.25;;;1.00;;
42036;SDS011;30340;52.004;5.908;2023-06-04T12:24:08;2.03;;;1.17;;
42036;SDS011;30340;52.004;5.908;2023-06-04T12:26:34;1.55;;;1.10;;
42036;SDS011;30340;52.004;5.908;2023-06-04T12:29:15;1.27;;;0.90;;
42036;SDS011;30340;52.004;5.908;2023-06-04T12:31:43;1.67;;;1.10;;
42036;SDS011;30340;52.004;5.908;2023-06-04T12:34:10;2.28;;;1.20;;
42036;SDS011;30340;52.004;5.908;2023-06-04T12:36:36;1.75;;;0.95;;
42036;SDS011;30340;52.004;5.908;2023-06-04T12:39:03;2.13;;;1.48;;
42036;SDS011;30340;52.004;5.908;2023-06-04T12:41:30;2.65;;;1.38;;
42036;SDS011;30340;52.004;5.908;2023-06-04T12:43:56;2.58;;;1.60;;
42036;SDS011;30340;52.004;5.908;2023-06-04T12:46:22;1.98;;;1.10;;
42036;SDS011;30340;52.004;5.908;2023-06-04T12:48:49;2.53;;;1.17;;
42036;SDS011;30340;52.004;5.908;2023-06-04T12:51:16;1.88;;;1.17;;
42036;SDS011;30340;52.004;5.908;2023-06-04T12:53:41;1.70;;;1.20;;
42036;SDS011;30340;52.004;5.908;2023-06-04T12:56:08;2.03;;;1.38;;
42036;SDS011;30340;52.004;5.908;2023-06-04T12:58:34;2.00;;;1.40;;
42036;SDS011;30340;52.004;5.908;2023-06-04T13:01:00;1.25;;;1.10;;
42036;SDS011;30340;52.004;5.908;2023-06-04T13:03:26;1.38;;;1.25;;
42036;SDS011;30340;52.004;5.908;2023-06-04T13:05:52;1.42;;;1.00;;
42036;SDS011;30340;52.004;5.908;2023-06-04T13:08:21;1.17;;;1.08;;
42036;SDS011;30340;52.004;5.908;2023-06-04T13:10:47;2.40;;;1.30;;
42036;SDS011;30340;52.004;5.908;2023-06-04T13:13:14;2.05;;;1.55;;
42036;SDS011;30340;52.004;5.908;2023-06-04T13:15:43;1.70;;;1.50;;
42036;SDS011;30340;52.004;5.908;2023-06-04T13:18:09;3.17;;;1.33;;
42036;SDS011;30340;52.004;5.908;2023-06-04T13:20:35;1.90;;;1.20;;
42036;SDS011;30340;52.004;5.908;2023-06-04T13:23:02;1.63;;;1.00;;
42036;SDS011;30340;52.004;5.908;2023-06-04T13:25:28;3.15;;;1.13;;
42036;SDS011;30340;52.004;5.908;2023-06-04T13:27:54;2.13;;;1.00;;
42036;SDS011;30340;52.004;5.908;2023-06-04T13:30:20;1.67;;;1.13;;
42036;SDS011;30340;52.004;5.908;2023-06-04T13:32:46;1.77;;;0.98;;
42036;SDS011;30340;52.004;5.908;2023-06-04T13:35:12;2.47;;;1.10;;
42036;SDS011;30340;52.004;5.908;2023-06-04T13:37:38;2.60;;;1.02;;
42036;SDS011;30340;52.004;5.908;2023-06-04T13:40:03;1.90;;;1.10;;
42036;SDS011;30340;52.004;5.908;2023-06-04T13:42:29;1.50;;;1.10;;
42036;SDS011;30340;52.004;5.908;2023-06-04T13:44:55;1.25;;;1.10;;
42036;SDS011;30340;52.004;5.908;2023-06-04T13:47:20;1.83;;;1.40;;
42036;SDS011;30340;52.004;5.908;2023-06-04T13:49:46;1.48;;;1.20;;
42036;SDS011;30340;52.004;5.908;2023-06-04T13:52:12;1.92;;;1.15;;
42036;SDS011;30340;52.004;5.908;2023-06-04T13:54:38;2.20;;;1.40;;
42036;SDS011;30340;52.004;5.908;2023-06-04T13:57:04;1.60;;;1.30;;
42036;SDS011;30340;52.004;5.908;2023-06-04T13:59:31;1.52;;;1.20;;
42036;SDS011;30340;52.004;5.908;2023-06-04T14:01:59;1.40;;;1.17;;
42036;SDS011;30340;52.004;5.908;2023-06-04T14:04:25;1.15;;;0.90;;
42036;SDS011;30340;52.004;5.908;2023-06-04T14:06:50;2.20;;;1.20;;
42036;SDS011;30340;52.004;5.908;2023-06-04T14:09:16;1.85;;;1.10;;
42036;SDS011;30340;52.004;5.908;2023-06-04T14:11:42;1.90;;;1.10;;
42036;SDS011;30340;52.004;5.908;2023-06-04T14:14:07;2.03;;;1.25;;
42036;SDS011;30340;52.004;5.908;2023-06-04T14:16:33;2.75;;;1.30;;
42036;SDS011;30340;52.004;5.908;2023-06-04T14:18:59;2.28;;;1.30;;
42036;SDS011;30340;52.004;5.908;2023-06-04T14:21:24;2.10;;;1.20;;
42036;SDS011;30340;52.004;5.908;2023-06-04T14:23:51;1.30;;;1.00;;
42036;SDS011;30340;52.004;5.908;2023-06-04T14:26:17;7.90;;;1.48;;
42036;SDS011;30340;52.004;5.908;2023-06-04T14:28:43;1.92;;;1.33;;
42036;SDS011;30340;52.004;5.908;2023-06-04T14:31:09;1.83;;;1.30;;
42036;SDS011;30340;52.004;5.908;2023-06-04T14:33:36;1.63;;;0.90;;
42036;SDS011;30340;52.004;5.908;2023-06-04T14:36:02;2.03;;;1.17;;
42036;SDS011;30340;52.004;5.908;2023-06-04T14:38:28;1.77;;;1.20;;
42036;SDS011;30340;52.004;5.908;2023-06-04T14:40:54;1.52;;;1.30;;
42036;SDS011;30340;52.004;5.908;2023-06-04T14:43:21;1.42;;;1.30;;
42036;SDS011;30340;52.004;5.908;2023-06-04T14:45:47;2.25;;;1.50;;
42036;SDS011;30340;52.004;5.908;2023-06-04T14:48:13;1.55;;;1.00;;
42036;SDS011;30340;52.004;5.908;2023-06-04T14:50:38;2.03;;;1.35;;
42036;SDS011;30340;52.004;5.908;2023-06-04T14:53:04;2.72;;;1.30;;